createdAt,value
2023-05-05T00:01:34.382Z,75.30
2023-05-05T00:04:01.861Z,75.70
2023-05-05T00:06:29.149Z,74.20
2023-05-05T00:08:56.438Z,74.90
2023-05-05T00:11:23.948Z,74.10
2023-05-05T00:13:51.714Z,75.10
2023-05-05T00:16:19.190Z,75.50
2023-05-05T00:18:46.552Z,76.20
2023-05-05T00:21:13.762Z,76.80
2023-05-05T00:23:40.904Z,76.20
2023-05-05T00:26:08.144Z,75.20
2023-05-05T00:28:35.374Z,75.30
2023-05-05T00:31:02.678Z,75.50
2023-05-05T00:33:29.945Z,75.70
2023-05-05T00:35:57.216Z,75.80
2023-05-05T00:38:24.418Z,75.70
2023-05-05T00:40:51.535Z,76.20
2023-05-05T00:43:18.766Z,76.50
2023-05-05T00:45:48.152Z,77.10
2023-05-05T00:48:18.043Z,77.50
2023-05-05T00:50:45.526Z,77.60
2023-05-05T00:53:13.508Z,78.00
2023-05-05T00:55:40.970Z,79.90
2023-05-05T00:58:08.844Z,79.50
2023-05-05T01:00:36.102Z,79.40
2023-05-05T01:03:03.675Z,80.00
2023-05-05T01:05:51.579Z,83.00
2023-05-05T01:08:51.439Z,85.20
2023-05-05T01:11:31.352Z,86.00
2023-05-05T01:13:58.504Z,85.30
2023-05-05T01:16:29.319Z,85.00
2023-05-05T01:19:35.709Z,84.60
2023-05-05T01:22:06.924Z,83.30
2023-05-05T01:24:40.076Z,83.60
2023-05-05T01:27:31.481Z,84.70
2023-05-05T01:30:19.444Z,89.30
2023-05-05T01:32:55.482Z,90.20
2023-05-05T01:35:28.684Z,91.10
2023-05-05T01:38:19.460Z,90.60
2023-05-05T01:40:52.429Z,90.50
2023-05-05T01:43:21.431Z,90.60
2023-05-05T01:45:49.956Z,90.60
2023-05-05T01:48:19.884Z,91.60
2023-05-05T01:50:48.984Z,92.10
2023-05-05T01:53:18.410Z,92.80
2023-05-05T01:55:47.007Z,93.10
2023-05-05T01:58:16.363Z,93.10
2023-05-05T02:00:44.720Z,93.50
2023-05-05T02:03:15.003Z,93.90
2023-05-05T02:05:43.380Z,94.10
2023-05-05T02:08:11.779Z,94.10
2023-05-05T02:10:43.055Z,95.10
2023-05-05T02:13:15.721Z,95.50
2023-05-05T02:15:44.851Z,95.90
2023-05-05T02:18:14.414Z,96.10
2023-05-05T02:20:41.887Z,96.20
2023-05-05T02:23:09.691Z,96.30
2023-05-05T02:25:42.602Z,96.80
2023-05-05T02:28:35.472Z,96.60
2023-05-05T02:31:05.728Z,96.60
2023-05-05T02:33:34.750Z,96.70
2023-05-05T02:36:11.763Z,97.10
2023-05-05T02:38:44.256Z,97.30
2023-05-05T02:41:16.816Z,97.70
2023-05-05T02:43:45.654Z,97.90
2023-05-05T02:46:13.027Z,98.10
2023-05-05T02:48:40.317Z,98.40
2023-05-05T02:51:08.044Z,99.00
2023-05-05T02:53:35.850Z,99.30
2023-05-05T02:56:27.165Z,99.40
2023-05-05T02:59:08.016Z,99.20
2023-05-05T03:02:03.533Z,99.30
2023-05-05T03:04:38.889Z,99.40
2023-05-05T03:07:34.917Z,99.60
2023-05-05T03:10:14.220Z,99.70
2023-05-05T03:12:56.688Z,99.90
2023-05-05T03:15:28.553Z,99.90
2023-05-05T03:17:58.513Z,99.90
2023-05-05T03:20:26.522Z,99.60
2023-05-05T03:22:55.030Z,98.70
2023-05-05T03:25:22.534Z,98.40
2023-05-05T03:27:49.763Z,98.10
2023-05-05T03:30:16.953Z,97.90
2023-05-05T03:32:44.224Z,97.60
2023-05-05T03:35:12.221Z,97.10
2023-05-05T03:37:39.424Z,96.80
2023-05-05T03:40:07.414Z,96.80
2023-05-05T03:42:34.721Z,96.70
2023-05-05T03:45:01.880Z,96.50
2023-05-05T03:47:29.168Z,96.70
2023-05-05T03:49:56.505Z,96.10
2023-05-05T03:52:23.697Z,96.10
2023-05-05T03:54:50.862Z,95.90
2023-05-05T03:57:18.125Z,95.30
2023-05-05T03:59:45.344Z,95.00
2023-05-05T04:02:12.608Z,95.20
2023-05-05T04:04:39.944Z,94.90
2023-05-05T04:07:07.071Z,94.50
2023-05-05T04:09:34.363Z,94.70
2023-05-05T04:12:01.860Z,94.50
2023-05-05T04:14:29.220Z,94.20
2023-05-05T04:16:56.411Z,94.40
2023-05-05T04:19:23.656Z,94.60
2023-05-05T04:21:52.163Z,94.60
2023-05-05T04:24:23.311Z,94.10
2023-05-05T04:26:51.220Z,94.30
2023-05-05T04:29:18.550Z,94.30
2023-05-05T04:31:45.967Z,93.80
2023-05-05T04:34:13.165Z,93.90
2023-05-05T04:36:40.368Z,93.90
2023-05-05T04:39:08.871Z,93.60
2023-05-05T04:41:36.043Z,94.70
2023-05-05T04:44:03.229Z,93.90
2023-05-05T04:46:31.195Z,94.70
2023-05-05T04:48:59.441Z,94.50
2023-05-05T04:51:27.897Z,93.60
2023-05-05T04:53:56.040Z,93.20
2023-05-05T04:56:23.269Z,93.50
2023-05-05T04:58:50.915Z,93.20
2023-05-05T05:01:18.129Z,92.80
2023-05-05T05:03:45.341Z,92.20
2023-05-05T05:06:12.683Z,92.70
2023-05-05T05:08:39.856Z,91.80
2023-05-05T05:11:07.120Z,91.40
2023-05-05T05:13:34.578Z,91.40
2023-05-05T05:16:02.194Z,91.60
2023-05-05T05:18:29.373Z,91.10
2023-05-05T05:20:56.747Z,91.30
2023-05-05T05:23:23.979Z,91.40
2023-05-05T05:25:51.314Z,91.30
2023-05-05T05:28:18.502Z,90.50
2023-05-05T05:30:45.620Z,90.50
2023-05-05T05:33:12.903Z,88.50
2023-05-05T05:35:40.132Z,89.50
2023-05-05T05:38:07.359Z,88.00
2023-05-05T05:40:34.563Z,89.90
2023-05-05T05:43:03.037Z,88.50
2023-05-05T05:45:30.655Z,87.70
2023-05-05T05:47:57.824Z,87.50
2023-05-05T05:50:27.338Z,86.30
2023-05-05T05:52:55.142Z,85.20
2023-05-05T05:55:22.424Z,83.30
2023-05-05T05:57:49.490Z,84.50
2023-05-05T06:00:16.876Z,83.00
2023-05-05T06:02:44.107Z,84.00
2023-05-05T06:05:12.903Z,82.10
2023-05-05T06:07:40.058Z,80.90
2023-05-05T06:10:22.803Z,79.00
2023-05-05T06:12:53.363Z,76.40
2023-05-05T06:15:20.637Z,80.50
2023-05-05T06:17:47.840Z,77.70
2023-05-05T06:20:15.109Z,77.20
2023-05-05T06:22:42.251Z,78.70
2023-05-05T06:25:09.596Z,76.30
2023-05-05T06:27:36.777Z,75.30
2023-05-05T06:30:04.392Z,72.00
2023-05-05T06:32:31.547Z,71.60
2023-05-05T06:34:58.780Z,71.60
2023-05-05T06:37:25.873Z,71.30
2023-05-05T06:39:53.124Z,70.70
2023-05-05T06:42:20.240Z,70.40
2023-05-05T06:44:47.298Z,69.20
2023-05-05T06:47:14.420Z,64.10
2023-05-05T06:49:41.740Z,62.70
2023-05-05T06:52:08.869Z,63.30
2023-05-05T06:54:36.171Z,66.10
2023-05-05T06:57:03.336Z,63.50
2023-05-05T06:59:30.533Z,58.60
2023-05-05T07:01:57.660Z,57.50
2023-05-05T07:04:24.817Z,55.30
2023-05-05T07:06:52.498Z,54.30
2023-05-05T07:09:20.542Z,55.20
2023-05-05T07:11:47.951Z,56.10
2023-05-05T07:14:15.190Z,53.50
2023-05-05T07:16:42.517Z,51.90
2023-05-05T07:19:09.790Z,51.60
2023-05-05T07:21:37.141Z,50.70
2023-05-05T07:24:04.447Z,52.50
2023-05-05T07:26:32.525Z,54.30
2023-05-05T07:28:59.850Z,48.50
2023-05-05T07:31:27.085Z,48.40
2023-05-05T07:33:54.271Z,50.10
2023-05-05T07:36:21.560Z,50.00
2023-05-05T07:38:48.641Z,48.70
2023-05-05T07:41:16.607Z,51.00
2023-05-05T07:43:46.271Z,51.50
2023-05-05T07:46:14.106Z,54.10
2023-05-05T07:48:41.876Z,46.20
2023-05-05T07:51:09.555Z,49.20
2023-05-05T07:53:36.858Z,48.30
2023-05-05T07:56:04.163Z,49.00
2023-05-05T07:58:31.212Z,47.90
2023-05-05T08:00:58.403Z,49.80
2023-05-05T08:03:25.940Z,49.80
2023-05-05T08:05:56.635Z,49.30
2023-05-05T08:08:27.358Z,49.80
2023-05-05T08:10:54.664Z,52.90
2023-05-05T08:13:21.860Z,53.50
2023-05-05T08:15:49.012Z,53.40
2023-05-05T08:18:16.153Z,54.00
2023-05-05T08:20:43.392Z,49.20
2023-05-05T08:23:10.493Z,48.90
2023-05-05T08:25:37.503Z,47.20
2023-05-05T08:28:04.657Z,46.40
2023-05-05T08:30:31.813Z,45.30
2023-05-05T08:32:59.526Z,45.00
2023-05-05T08:35:26.705Z,45.10
2023-05-05T08:37:54.077Z,46.40
2023-05-05T08:40:29.455Z,48.90
2023-05-05T08:42:56.701Z,43.20
2023-05-05T08:45:23.834Z,48.80
2023-05-05T08:47:51.038Z,41.20
2023-05-05T08:50:19.311Z,41.90
2023-05-05T08:52:54.344Z,41.50
2023-05-05T08:55:26.612Z,43.00
2023-05-05T08:57:58.409Z,43.80
2023-05-05T09:00:27.372Z,44.80
2023-05-05T09:02:58.419Z,44.40
2023-05-05T09:05:27.301Z,45.20
2023-05-05T09:07:54.723Z,46.30
2023-05-05T09:10:22.188Z,49.20
2023-05-05T09:12:51.496Z,47.50
2023-05-05T09:15:18.796Z,44.50
2023-05-05T09:17:46.023Z,45.70
2023-05-05T09:20:14.794Z,44.80
2023-05-05T09:22:44.959Z,44.50
2023-05-05T09:25:18.803Z,39.00
2023-05-05T09:27:49.084Z,38.10
2023-05-05T09:30:18.716Z,35.90
2023-05-05T09:32:49.827Z,37.10
2023-05-05T09:35:18.121Z,35.90
2023-05-05T09:37:45.961Z,40.30
2023-05-05T09:40:18.217Z,38.30
2023-05-05T09:42:45.966Z,42.00
2023-05-05T09:45:18.936Z,40.60
2023-05-05T09:47:47.356Z,40.50
2023-05-05T09:50:21.761Z,42.20
2023-05-05T09:53:02.682Z,41.30
2023-05-05T09:55:33.724Z,44.10
2023-05-05T09:58:20.442Z,41.70
2023-05-05T10:00:47.941Z,43.00
2023-05-05T10:03:15.192Z,39.90
2023-05-05T10:05:52.903Z,37.60
2023-05-05T10:08:28.800Z,40.00
2023-05-05T10:10:57.638Z,42.40
2023-05-05T10:13:25.568Z,38.90
2023-05-05T10:15:57.423Z,37.20
2023-05-05T10:18:26.873Z,39.20
2023-05-05T10:20:58.500Z,39.10
2023-05-05T10:23:36.818Z,36.40
2023-05-05T10:26:07.224Z,37.40
2023-05-05T10:28:41.556Z,38.30
2023-05-05T10:31:25.796Z,37.90
2023-05-05T10:34:06.281Z,39.40
2023-05-05T10:36:34.449Z,39.80
2023-05-05T10:39:03.335Z,42.20
2023-05-05T10:41:32.334Z,39.30
2023-05-05T10:44:01.386Z,39.10
2023-05-05T10:46:29.975Z,42.50
2023-05-05T10:49:14.957Z,34.70
2023-05-05T10:51:57.935Z,37.10
2023-05-05T10:54:38.266Z,36.50
2023-05-05T10:57:07.233Z,36.80
2023-05-05T10:59:37.792Z,39.50
2023-05-05T11:02:28.096Z,37.70
2023-05-05T11:05:17.957Z,40.60
2023-05-05T11:07:47.102Z,37.70
2023-05-05T11:10:16.056Z,39.00
2023-05-05T11:12:55.530Z,37.00
2023-05-05T11:15:31.612Z,38.70
2023-05-05T11:18:05.648Z,37.60
2023-05-05T11:20:43.770Z,39.10
2023-05-05T11:23:11.025Z,40.80
2023-05-05T11:25:39.229Z,43.40
2023-05-05T11:28:15.037Z,39.50
2023-05-05T11:30:58.058Z,39.40
2023-05-05T11:33:32.669Z,36.30
2023-05-05T11:36:07.481Z,34.90
2023-05-05T11:38:59.717Z,36.80
2023-05-05T11:41:32.857Z,38.00
2023-05-05T11:44:20.042Z,37.10
2023-05-05T11:46:53.279Z,40.20
2023-05-05T11:49:39.702Z,39.60
2023-05-05T11:52:12.613Z,38.50
2023-05-05T11:54:41.656Z,38.70
2023-05-05T11:57:09.351Z,39.90
2023-05-05T12:00:10.263Z,38.50
2023-05-05T12:02:37.862Z,39.10
2023-05-05T12:05:05.770Z,38.80
2023-05-05T12:07:33.703Z,38.00
2023-05-05T12:10:01.618Z,33.70
2023-05-05T12:12:41.672Z,32.40
2023-05-05T12:15:09.895Z,35.10
2023-05-05T12:17:46.232Z,33.30
2023-05-05T12:20:13.747Z,36.50
2023-05-05T12:22:41.179Z,32.50
2023-05-05T12:25:09.293Z,35.30
2023-05-05T12:27:36.586Z,35.60
2023-05-05T12:30:17.808Z,36.50
2023-05-05T12:32:45.815Z,41.00
2023-05-05T12:35:13.759Z,37.40
2023-05-05T12:37:41.790Z,37.30
2023-05-05T12:40:45.766Z,42.10
2023-05-05T12:43:27.698Z,39.70
2023-05-05T12:46:08.182Z,38.20
2023-05-05T12:48:38.376Z,36.00
2023-05-05T12:51:23.566Z,39.90
2023-05-05T12:54:05.153Z,38.60
2023-05-05T12:56:34.738Z,38.50
2023-05-05T12:59:09.324Z,40.70
2023-05-05T13:01:38.009Z,42.70
2023-05-05T13:04:11.656Z,37.40
2023-05-05T13:06:40.680Z,35.70
2023-05-05T13:09:08.055Z,37.70
2023-05-05T13:11:39.408Z,33.90
2023-05-05T13:14:07.387Z,38.60
2023-05-05T13:16:34.575Z,36.70
2023-05-05T13:19:01.730Z,35.60
2023-05-05T13:21:28.722Z,32.60
2023-05-05T13:24:04.950Z,37.00
2023-05-05T13:26:39.490Z,35.70
2023-05-05T13:29:06.562Z,34.10
2023-05-05T13:31:33.694Z,32.30
2023-05-05T13:34:00.815Z,32.90
2023-05-05T13:36:27.898Z,34.80
2023-05-05T13:38:55.017Z,31.70
2023-05-05T13:41:22.068Z,33.70
2023-05-05T13:43:49.629Z,35.40
2023-05-05T13:46:19.987Z,38.50
2023-05-05T13:48:47.467Z,38.10
2023-05-05T13:51:16.056Z,36.30
2023-05-05T13:53:46.694Z,36.50
2023-05-05T13:56:14.645Z,37.80
2023-05-05T13:58:42.754Z,37.50
2023-05-05T14:01:11.288Z,36.70
2023-05-05T14:03:39.872Z,38.40
2023-05-05T14:06:09.336Z,38.40
2023-05-05T14:08:36.660Z,40.70
2023-05-05T14:11:03.916Z,42.20
2023-05-05T14:13:31.303Z,39.80
2023-05-05T14:15:58.642Z,38.90
2023-05-05T14:18:26.251Z,41.50
2023-05-05T14:20:53.524Z,42.10
2023-05-05T14:23:20.640Z,38.90
2023-05-05T14:25:47.881Z,35.20
2023-05-05T14:28:15.149Z,37.50
2023-05-05T14:30:42.247Z,37.70
2023-05-05T14:33:09.352Z,36.30
2023-05-05T14:35:36.446Z,36.60
2023-05-05T14:38:03.581Z,35.00
2023-05-05T14:40:31.546Z,34.20
2023-05-05T14:42:58.692Z,33.60
2023-05-05T14:45:26.588Z,33.60
2023-05-05T14:47:53.779Z,33.30
2023-05-05T14:50:20.976Z,35.00
2023-05-05T14:52:48.191Z,34.70
2023-05-05T14:55:15.235Z,32.60
2023-05-05T14:57:42.442Z,34.30
2023-05-05T15:00:11.170Z,33.10
2023-05-05T15:02:38.347Z,30.70
2023-05-05T15:05:06.970Z,30.80
2023-05-05T15:07:34.440Z,32.80
2023-05-05T15:10:01.634Z,34.40
2023-05-05T15:12:28.887Z,33.20
2023-05-05T15:14:56.092Z,32.70
2023-05-05T15:17:24.987Z,33.90
2023-05-05T15:19:52.167Z,32.50
2023-05-05T15:22:19.367Z,33.20
2023-05-05T15:24:46.701Z,34.50
2023-05-05T15:27:13.941Z,33.20
2023-05-05T15:29:41.118Z,35.10
2023-05-05T15:32:08.267Z,34.40
2023-05-05T15:34:37.518Z,34.20
2023-05-05T15:37:04.608Z,34.80
2023-05-05T15:39:31.705Z,37.00
2023-05-05T15:42:04.387Z,36.80
2023-05-05T15:44:32.224Z,37.50
2023-05-05T15:46:59.497Z,38.40
2023-05-05T15:49:26.587Z,38.80
2023-05-05T15:51:53.678Z,38.10
2023-05-05T15:54:20.964Z,36.60
2023-05-05T15:56:48.101Z,37.80
2023-05-05T15:59:15.196Z,38.00
2023-05-05T16:01:42.435Z,34.30
2023-05-05T16:04:09.576Z,35.50
2023-05-05T16:06:36.770Z,33.00
2023-05-05T16:09:04.562Z,34.40
2023-05-05T16:11:31.699Z,34.20
2023-05-05T16:13:58.752Z,35.50
2023-05-05T16:16:25.966Z,37.20
2023-05-05T16:18:53.135Z,38.00
2023-05-05T16:21:20.493Z,37.80
2023-05-05T16:23:47.710Z,38.60
2023-05-05T16:26:14.736Z,39.50
2023-05-05T16:28:41.965Z,40.00
2023-05-05T16:31:11.107Z,41.70
2023-05-05T16:33:41.007Z,41.50
2023-05-05T16:36:11.303Z,44.40
2023-05-05T16:38:39.286Z,44.10
2023-05-05T16:41:09.081Z,45.40
2023-05-05T16:43:37.410Z,46.30
2023-05-05T16:46:04.804Z,45.90
2023-05-05T16:48:32.086Z,45.50
2023-05-05T16:50:59.328Z,45.80
2023-05-05T16:53:26.505Z,46.10
2023-05-05T16:55:54.176Z,47.20
2023-05-05T16:58:22.957Z,47.80
2023-05-05T17:00:51.086Z,47.40
2023-05-05T17:03:19.168Z,47.10
2023-05-05T17:05:50.238Z,48.10
2023-05-05T17:08:17.768Z,48.50
2023-05-05T17:10:45.714Z,47.80
2023-05-05T17:13:14.112Z,48.90
2023-05-05T17:15:41.843Z,49.00
2023-05-05T17:18:09.459Z,49.30
2023-05-05T17:20:36.886Z,49.20
2023-05-05T17:23:04.144Z,49.90
2023-05-05T17:25:31.642Z,49.70
2023-05-05T17:27:58.849Z,51.40
2023-05-05T17:30:29.164Z,51.50
2023-05-05T17:32:57.115Z,52.20
2023-05-05T17:35:24.336Z,52.70
2023-05-05T17:37:51.667Z,53.70
2023-05-05T17:40:19.009Z,54.70
2023-05-05T17:42:46.263Z,55.00
2023-05-05T17:45:13.414Z,56.00
2023-05-05T17:47:40.604Z,56.30
2023-05-05T17:50:08.839Z,56.70
2023-05-05T17:52:36.023Z,57.00
2023-05-05T17:55:03.163Z,57.10
2023-05-05T17:57:30.415Z,57.60
2023-05-05T17:59:57.579Z,58.20
2023-05-05T18:02:25.227Z,58.90
2023-05-05T18:04:52.604Z,58.90
2023-05-05T18:07:19.683Z,59.70
2023-05-05T18:09:46.728Z,61.00
2023-05-05T18:12:13.793Z,62.50
2023-05-05T18:14:41.014Z,63.30
2023-05-05T18:17:08.245Z,64.30
2023-05-05T18:19:35.256Z,64.90
2023-05-05T18:22:02.381Z,65.20
2023-05-05T18:24:29.709Z,65.80
2023-05-05T18:26:56.825Z,66.70
2023-05-05T18:29:23.880Z,68.00
2023-05-05T18:31:53.214Z,69.80
2023-05-05T18:34:21.046Z,71.80
2023-05-05T18:36:48.536Z,74.20
2023-05-05T18:39:15.737Z,75.70
2023-05-05T18:41:42.823Z,76.60
2023-05-05T18:44:10.523Z,78.70
2023-05-05T18:46:37.729Z,79.40
2023-05-05T18:49:04.960Z,79.30
2023-05-05T18:51:32.568Z,79.90
2023-05-05T18:54:01.055Z,81.10
2023-05-05T18:56:28.330Z,81.80
2023-05-05T18:58:55.910Z,81.80
2023-05-05T19:01:23.722Z,82.00
2023-05-05T19:03:51.052Z,82.90
2023-05-05T19:06:18.499Z,83.80
2023-05-05T19:08:45.957Z,84.50
2023-05-05T19:11:14.955Z,88.50
2023-05-05T19:13:42.701Z,89.30
2023-05-05T19:16:11.478Z,90.30
2023-05-05T19:18:39.317Z,90.50
2023-05-05T19:21:06.654Z,89.70
2023-05-05T19:23:34.750Z,88.50
2023-05-05T19:26:03.757Z,87.80
2023-05-05T19:28:30.902Z,89.90
2023-05-05T19:30:58.144Z,91.30
2023-05-05T19:33:25.254Z,92.30
2023-05-05T19:35:52.444Z,92.60
2023-05-05T19:38:19.667Z,92.20
2023-05-05T19:40:46.968Z,91.90
2023-05-05T19:43:14.255Z,91.90
2023-05-05T19:45:41.424Z,92.40
2023-05-05T19:48:08.544Z,92.70
2023-05-05T19:50:35.667Z,92.10
2023-05-05T19:53:03.872Z,92.40
2023-05-05T19:55:31.211Z,92.60
2023-05-05T19:57:58.288Z,92.50
2023-05-05T20:00:25.449Z,91.40
2023-05-05T20:02:52.573Z,91.30
2023-05-05T20:05:19.850Z,90.50
2023-05-05T20:07:47.234Z,88.30
2023-05-05T20:10:14.638Z,87.20
2023-05-05T20:12:48.454Z,86.50
2023-05-05T20:15:19.715Z,86.70
2023-05-05T20:17:48.012Z,85.70
2023-05-05T20:20:21.160Z,84.90
2023-05-05T20:22:49.544Z,83.00
2023-05-05T20:25:17.091Z,82.10
2023-05-05T20:27:45.790Z,81.10
2023-05-05T20:30:13.701Z,80.80
2023-05-05T20:32:41.680Z,80.00
2023-05-05T20:35:09.744Z,80.50
2023-05-05T20:37:36.997Z,80.90
2023-05-05T20:40:05.501Z,80.80
2023-05-05T20:42:32.762Z,79.90
2023-05-05T20:45:01.479Z,80.10
2023-05-05T20:47:28.766Z,80.10
2023-05-05T20:49:56.436Z,80.50
2023-05-05T20:52:23.668Z,80.80
2023-05-05T20:54:50.961Z,80.00
2023-05-05T20:57:18.141Z,79.50
2023-05-05T20:59:45.295Z,79.10
2023-05-05T21:02:12.607Z,79.60
2023-05-05T21:04:39.966Z,79.50
2023-05-05T21:07:07.139Z,79.20
2023-05-05T21:09:36.984Z,79.60
2023-05-05T21:12:04.313Z,79.70
2023-05-05T21:14:31.564Z,80.00
2023-05-05T21:16:58.855Z,80.40
2023-05-05T21:19:26.134Z,81.60
2023-05-05T21:21:53.957Z,80.90
2023-05-05T21:24:21.323Z,81.30
2023-05-05T21:26:48.453Z,82.50
2023-05-05T21:29:15.647Z,82.70
2023-05-05T21:31:42.945Z,83.50
2023-05-05T21:34:10.029Z,84.10
2023-05-05T21:36:38.674Z,84.50
2023-05-05T21:39:05.878Z,84.70
2023-05-05T21:41:33.065Z,84.80
2023-05-05T21:44:00.383Z,85.20
2023-05-05T21:46:27.657Z,85.00
2023-05-05T21:48:54.882Z,85.10
2023-05-05T21:51:23.723Z,85.80
2023-05-05T21:53:50.969Z,85.80
2023-05-05T21:56:18.098Z,87.10
2023-05-05T21:58:45.278Z,88.50
2023-05-05T22:01:12.832Z,89.00
2023-05-05T22:03:40.224Z,89.20
2023-05-05T22:06:07.442Z,89.00
2023-05-05T22:08:35.080Z,89.00
2023-05-05T22:11:02.292Z,90.80
2023-05-05T22:13:29.585Z,91.50
2023-05-05T22:15:56.790Z,92.10
2023-05-05T22:18:24.078Z,92.80
2023-05-05T22:20:51.652Z,93.30
2023-05-05T22:23:18.807Z,93.00
2023-05-05T22:25:46.829Z,93.10
2023-05-05T22:28:14.051Z,92.80
2023-05-05T22:30:41.607Z,93.60
2023-05-05T22:33:09.280Z,94.20
2023-05-05T22:35:37.768Z,94.20
2023-05-05T22:38:05.577Z,94.20
2023-05-05T22:40:32.989Z,94.80
2023-05-05T22:43:00.216Z,95.10
2023-05-05T22:45:27.561Z,95.50
2023-05-05T22:47:55.749Z,95.80
2023-05-05T22:50:23.132Z,96.40
2023-05-05T22:52:50.386Z,96.30
2023-05-05T22:55:17.767Z,96.80
2023-05-05T22:57:44.994Z,97.30
2023-05-05T23:00:12.823Z,97.90
2023-05-05T23:02:41.061Z,97.90
2023-05-05T23:05:09.045Z,98.00
2023-05-05T23:07:36.452Z,98.20
2023-05-05T23:10:04.538Z,98.20
2023-05-05T23:12:31.866Z,98.00
2023-05-05T23:14:59.129Z,98.10
2023-05-05T23:17:26.374Z,98.50
2023-05-05T23:19:53.700Z,98.50
2023-05-05T23:22:20.876Z,98.50
2023-05-05T23:24:48.016Z,98.50
2023-05-05T23:27:15.222Z,98.40
2023-05-05T23:29:42.416Z,98.50
2023-05-05T23:32:09.680Z,98.80
2023-05-05T23:34:36.989Z,99.20
2023-05-05T23:37:06.179Z,99.90
2023-05-05T23:39:34.856Z,99.90
2023-05-05T23:42:02.074Z,99.90
2023-05-05T23:44:29.230Z,99.90
2023-05-05T23:46:56.399Z,99.90
2023-05-05T23:49:25.122Z,99.90
2023-05-05T23:51:52.937Z,99.90
2023-05-05T23:54:20.149Z,99.90
2023-05-05T23:56:50.173Z,99.90
2023-05-05T23:59:17.434Z,99.90
